Terminal Aerodrome Forecast
Issued by NWS

Home | Current Version | Previous Version | Graphics & Text | Print | Product List | Glossary On
Versions: 1 2 3 4 5 6 7 8 9 10 11 12 13 14 15
196
FTUS43 KMPX 292331
TAFRNH
TAF
KRNH 292331Z 3000/3024 18008KT P6SM OVC017
     FM300400 16004KT 5SM -RASN BR SCT007 OVC012
     FM300800 VRB02KT 3SM -SN BR BKN007 OVC012
     FM301200 02003KT 2SM -SN BR OVC005
     FM301800 35006KT 4SM -RASN BR OVC008=

USA.gov is the U.S. government's official web portal to all federal, state and local government web resources and services.